Airfield :
LOGIN :

Register | Disclaimer

   EN    FR    IT 

 










Legend :    VFR   Marginal VFR   IFR   Intensive IFR   Very Intensive IFR
Visi :
Ceiling :
>= 8 km
>= 3000ft
5 to 8 km
1000 to 3000 ft
1500m to 5 km
500 to 1000 ft
800 to 1500m
200 to 500 ft
< 800m
< 200 ft
Symbols :   Thunderstorms  Fog  Heavy snow  Heavy precipitations  Wind > 20 kt
SIGMETs :     Misc.  Thunderstorms  Icing  Turbulence  Mountain Waves  Volcanic Ashes







- Airport Elevation : 357 ft
- IATA code : TUF
- Download approach charts


LFOT - Tours

CURRENT METAR :
  • 290700Z AUTO 19006KT 160V230 9999 SCT010 SCT018 BKN052 15/13 Q1000 TEMPO 2500 TSRA BKN020CB

EXPIRED METARs :
  • 290630Z AUTO 21005KT 180V250 9999 FEW009 SCT040 BKN046 15/14 Q1000 TEMPO 2500 TSRA BKN020CB
  • 290600Z AUTO 23005KT 190V260 9999 SCT006 BKN047 BKN094 15/14 Q1000 TEMPO 4000 SHRA SCT020CB BKN025
  • 290530Z AUTO 22005KT 190V270 9999 BKN004 BKN015 BKN043 14/13 Q1000 TEMPO 4000 SHRA SCT020CB BKN025
  • 290500Z AUTO 22005KT 190V260 9999 FEW015 BKN210 13/13 Q1000 NOSIG
  • 290430Z AUTO 22004KT 190V250 CAVOK 12/12 Q1000 NOSIG

TAF TAF LFOT
Valid from the 29 at 06:00 until the 30 at 06:00 UTC


290500Z 2906/3006 24008KT 9999 SCT035 BKN060
TEMPO 2906/3006 4000 SHRA SCT020CB BKN025
PROB40
TEMPO 2908/2921 2500 TSRA BKN020CB
PROB30
TEMPO 2911/2918 24017G27KT TSRAGR BKN015CB
No reported NOTAMs for that airfield.



MET'MAP, your aeronautical weather chart ! - Copyright ORBIFLY December 2007 - Disclaimer

ORBIFLY MET'MAP TEAM :

Programming & Development : Alexandra Zaïnal
Concept & Development : Baudouin d'Aumeries
Co-Development & Prog : Marc-Olivier Méhu
Technical & hardware support : Manuel Goepfert

Contact : metmap@orbifly.com




SOURCES & CREDITS :

   NOAA